West Lothian, United Kingdom

2:52 AM BST on September 29, 2016 (GMT +0100)
IWESTLOT3 | | Change Station

Elev 548 ft 55.91 °N, 3.63 °W | Updated 2 minutes ago

Partly Cloudy
Partly Cloudy
53.2 °F
Feels Like 53.2 °F
N
13.0
Wind Variable Wind from SW
Gusts 23.0 mph

Today
High -- | Low -- °F
--% Chance of Precip.
Yesterday
High -- | Low -- °F
Precip. -- in
Pressure 29.59 in
Visibility 6.2 miles
Clouds Few 2900 ft
Dew Point 49 °F
Humidity 85%
Rainfall 0.00 in
Snow Depth Not available.
7:14 AM 6:54 PM
Waning Crescent, 4% visible
METAR EGPH 290120Z 25024KT 9999 FEW029 13/08 Q1002
Pressure 29.59 in
Visibility 6.2 miles
Clouds Few 2900 ft
Dew Point 49 °F
Humidity 85%
Rainfall 0.00 in
Snow Depth Not available.
7:14 AM 6:54 PM
Waning Crescent, 4% visible
METAR EGPH 290120Z 25024KT 9999 FEW029 13/08 Q1002

10-Day Weather Forecast

×

Almanac

Astronomy

Sep. 29, 2016 Rise Set
Actual Time
Civil Twilight
Nautical Twilight
Astronomical Twilight
Moon
Length of Visible Light
Length of Day
Tomorrow will be .
, % of the Moon is Illuminated

Today's Extremes

Country Highs Country Lows

Community

WunderPhotos

Upload Photos

1,942,396 photos uploaded!

WunderBlog® & News

Nearby

Air Quality

  Air Quality AQ Index Pollutant
Not available.

Snow Depth

Station Depth Elevation

Earthquake Activity

City Distance Mag. Time & Date
Minimum magnitude displayed is 2.5.

Coastal Water Temperatures

Place Temperature

Stations

Nearby Weather Stations

Station Location Temp. Windchill Dew Point Humidity Wind Precip. Elev Updated Type